sensor_id;sensor_type;location;lat;lon;timestamp;pressure;altitude;pressure_sealevel;temperature;humidity
28935;BME280;16044;52.726;-2.108;2023-05-10T00:02:00;100128.19;;;8.87;99.10
28935;BME280;16044;52.726;-2.108;2023-05-10T00:04:47;100124.81;;;8.85;98.53
28935;BME280;16044;52.726;-2.108;2023-05-10T00:07:35;100126.16;;;8.81;98.79
28935;BME280;16044;52.726;-2.108;2023-05-10T00:10:22;100118.75;;;8.74;99.80
28935;BME280;16044;52.726;-2.108;2023-05-10T00:13:10;100127.88;;;8.73;98.96
28935;BME280;16044;52.726;-2.108;2023-05-10T00:15:57;100139.38;;;8.67;99.10
28935;BME280;16044;52.726;-2.108;2023-05-10T00:18:45;100140.06;;;8.61;100.00
28935;BME280;16044;52.726;-2.108;2023-05-10T00:21:32;100132.28;;;8.58;99.61
28935;BME280;16044;52.726;-2.108;2023-05-10T00:24:20;100143.97;;;8.58;98.97
28935;BME280;16044;52.726;-2.108;2023-05-10T00:27:07;100139.06;;;8.54;99.53
28935;BME280;16044;52.726;-2.108;2023-05-10T00:29:55;100132.31;;;8.50;99.85
28935;BME280;16044;52.726;-2.108;2023-05-10T00:32:42;100128.13;;;8.47;99.67
28935;BME280;16044;52.726;-2.108;2023-05-10T00:35:30;100125.25;;;8.49;99.24
28935;BME280;16044;52.726;-2.108;2023-05-10T00:38:17;100129.13;;;8.46;99.24
28935;BME280;16044;52.726;-2.108;2023-05-10T00:41:05;100127.78;;;8.42;99.83
28935;BME280;16044;52.726;-2.108;2023-05-10T00:43:52;100118.47;;;8.36;100.00
28935;BME280;16044;52.726;-2.108;2023-05-10T00:46:40;100120.34;;;8.36;99.77
28935;BME280;16044;52.726;-2.108;2023-05-10T00:49:28;100117.13;;;8.32;100.00
28935;BME280;16044;52.726;-2.108;2023-05-10T00:52:16;100121.00;;;8.30;100.00
28935;BME280;16044;52.726;-2.108;2023-05-10T00:55:04;100114.63;;;8.23;100.00
28935;BME280;16044;52.726;-2.108;2023-05-10T00:57:53;100113.09;;;8.20;100.00
28935;BME280;16044;52.726;-2.108;2023-05-10T01:00:41;100111.75;;;8.16;100.00
28935;BME280;16044;52.726;-2.108;2023-05-10T01:03:31;100115.13;;;8.10;100.00
28935;BME280;16044;52.726;-2.108;2023-05-10T01:06:19;100119.88;;;8.08;100.00
28935;BME280;16044;52.726;-2.108;2023-05-10T01:09:06;100116.00;;;8.02;100.00
28935;BME280;16044;52.726;-2.108;2023-05-10T01:11:54;100120.56;;;8.02;100.00
28935;BME280;16044;52.726;-2.108;2023-05-10T01:14:42;100117.16;;;7.99;100.00
28935;BME280;16044;52.726;-2.108;2023-05-10T01:17:30;100120.88;;;7.98;100.00
28935;BME280;16044;52.726;-2.108;2023-05-10T01:20:18;100116.84;;;7.94;100.00
28935;BME280;16044;52.726;-2.108;2023-05-10T01:23:30;100120.03;;;7.90;100.00
28935;BME280;16044;52.726;-2.108;2023-05-10T01:30:16;100118.00;;;7.84;100.00
28935;BME280;16044;52.726;-2.108;2023-05-10T01:36:34;100116.81;;;7.78;100.00
28935;BME280;16044;52.726;-2.108;2023-05-10T01:39:39;100117.34;;;7.73;100.00
28935;BME280;16044;52.726;-2.108;2023-05-10T01:42:49;100118.84;;;7.68;100.00
28935;BME280;16044;52.726;-2.108;2023-05-10T01:45:52;100117.16;;;7.58;100.00
28935;BME280;16044;52.726;-2.108;2023-05-10T01:48:58;100110.72;;;7.59;100.00
28935;BME280;16044;52.726;-2.108;2023-05-10T01:51:50;100114.09;;;7.53;100.00
28935;BME280;16044;52.726;-2.108;2023-05-10T01:54:44;100117.31;;;7.49;100.00
28935;BME280;16044;52.726;-2.108;2023-05-10T01:57:37;100123.84;;;7.46;100.00
28935;BME280;16044;52.726;-2.108;2023-05-10T02:00:27;100124.22;;;7.43;100.00
28935;BME280;16044;52.726;-2.108;2023-05-10T02:03:18;100123.34;;;7.42;100.00
28935;BME280;16044;52.726;-2.108;2023-05-10T02:06:07;100118.13;;;7.41;100.00
28935;BME280;16044;52.726;-2.108;2023-05-10T02:08:57;100117.44;;;7.39;100.00
28935;BME280;16044;52.726;-2.108;2023-05-10T02:11:44;100122.81;;;7.39;100.00
28935;BME280;16044;52.726;-2.108;2023-05-10T02:14:35;100119.44;;;7.37;100.00
28935;BME280;16044;52.726;-2.108;2023-05-10T02:17:24;100124.16;;;7.35;100.00
28935;BME280;16044;52.726;-2.108;2023-05-10T02:20:13;100120.78;;;7.33;100.00
28935;BME280;16044;52.726;-2.108;2023-05-10T02:23:04;100126.34;;;7.31;100.00
28935;BME280;16044;52.726;-2.108;2023-05-10T02:25:54;100133.75;;;7.29;100.00
28935;BME280;16044;52.726;-2.108;2023-05-10T02:28:42;100129.88;;;7.23;100.00
28935;BME280;16044;52.726;-2.108;2023-05-10T02:31:34;100130.53;;;7.17;100.00
28935;BME280;16044;52.726;-2.108;2023-05-10T02:34:23;100134.06;;;7.18;100.00
28935;BME280;16044;52.726;-2.108;2023-05-10T02:37:14;100139.13;;;7.13;100.00
28935;BME280;16044;52.726;-2.108;2023-05-10T02:40:03;100133.03;;;7.11;100.00
28935;BME280;16044;52.726;-2.108;2023-05-10T02:42:54;100141.81;;;7.13;100.00
28935;BME280;16044;52.726;-2.108;2023-05-10T02:45:46;100137.41;;;7.12;100.00
28935;BME280;16044;52.726;-2.108;2023-05-10T02:48:34;100136.06;;;7.08;100.00
28935;BME280;16044;52.726;-2.108;2023-05-10T02:51:25;100136.53;;;7.03;100.00
28935;BME280;16044;52.726;-2.108;2023-05-10T02:54:20;100132.16;;;7.02;100.00
28935;BME280;16044;52.726;-2.108;2023-05-10T02:57:16;100136.03;;;6.99;100.00
28935;BME280;16044;52.726;-2.108;2023-05-10T03:00:07;100139.56;;;7.00;100.00
28935;BME280;16044;52.726;-2.108;2023-05-10T03:02:55;100143.78;;;7.02;100.00
28935;BME280;16044;52.726;-2.108;2023-05-10T03:05:42;100139.56;;;7.00;100.00
28935;BME280;16044;52.726;-2.108;2023-05-10T03:08:30;100135.50;;;6.96;100.00
28935;BME280;16044;52.726;-2.108;2023-05-10T03:14:40;100139.69;;;6.90;100.00
28935;BME280;16044;52.726;-2.108;2023-05-10T03:17:47;100137.81;;;6.82;100.00
28935;BME280;16044;52.726;-2.108;2023-05-10T03:20:46;100139.47;;;6.83;100.00
28935;BME280;16044;52.726;-2.108;2023-05-10T03:23:50;100132.72;;;6.79;100.00
28935;BME280;16044;52.726;-2.108;2023-05-10T03:26:40;100137.59;;;6.76;100.00
28935;BME280;16044;52.726;-2.108;2023-05-10T03:29:31;100146.69;;;6.75;100.00
28935;BME280;16044;52.726;-2.108;2023-05-10T03:32:19;100133.38;;;6.73;100.00
28935;BME280;16044;52.726;-2.108;2023-05-10T03:35:10;100142.47;;;6.72;100.00
28935;BME280;16044;52.726;-2.108;2023-05-10T03:37:59;100126.28;;;6.72;100.00
28935;BME280;16044;52.726;-2.108;2023-05-10T03:40:47;100140.78;;;6.71;100.00
28935;BME280;16044;52.726;-2.108;2023-05-10T03:43:34;100146.16;;;6.71;100.00
28935;BME280;16044;52.726;-2.108;2023-05-10T03:46:21;100135.06;;;6.74;100.00
28935;BME280;16044;52.726;-2.108;2023-05-10T03:49:09;100145.31;;;6.71;100.00
28935;BME280;16044;52.726;-2.108;2023-05-10T03:51:56;100148.19;;;6.69;100.00
28935;BME280;16044;52.726;-2.108;2023-05-10T03:54:44;100139.91;;;6.71;100.00
28935;BME280;16044;52.726;-2.108;2023-05-10T03:57:31;100150.06;;;6.77;100.00
28935;BME280;16044;52.726;-2.108;2023-05-10T04:00:18;100150.06;;;6.77;100.00
28935;BME280;16044;52.726;-2.108;2023-05-10T04:03:06;100149.88;;;6.78;100.00
28935;BME280;16044;52.726;-2.108;2023-05-10T04:06:00;100153.97;;;6.82;100.00
28935;BME280;16044;52.726;-2.108;2023-05-10T04:08:48;100146.56;;;6.85;100.00
28935;BME280;16044;52.726;-2.108;2023-05-10T04:11:36;100142.84;;;6.86;100.00
28935;BME280;16044;52.726;-2.108;2023-05-10T04:14:23;100146.56;;;6.85;100.00
28935;BME280;16044;52.726;-2.108;2023-05-10T04:17:11;100163.56;;;6.85;100.00
28935;BME280;16044;52.726;-2.108;2023-05-10T04:19:59;100157.50;;;6.83;100.00
28935;BME280;16044;52.726;-2.108;2023-05-10T04:22:46;100146.88;;;6.81;100.00
28935;BME280;16044;52.726;-2.108;2023-05-10T04:25:34;100150.56;;;6.80;100.00
28935;BME280;16044;52.726;-2.108;2023-05-10T04:28:22;100144.88;;;6.83;100.00
28935;BME280;16044;52.726;-2.108;2023-05-10T04:31:10;100144.56;;;6.87;100.00
28935;BME280;16044;52.726;-2.108;2023-05-10T04:33:57;100148.63;;;6.91;100.00
28935;BME280;16044;52.726;-2.108;2023-05-10T04:36:44;100149.44;;;6.91;100.00
28935;BME280;16044;52.726;-2.108;2023-05-10T04:39:32;100148.97;;;6.96;100.00
28935;BME280;16044;52.726;-2.108;2023-05-10T04:42:19;100144.13;;;6.99;100.00
28935;BME280;16044;52.726;-2.108;2023-05-10T04:45:07;100148.69;;;7.07;100.00
28935;BME280;16044;52.726;-2.108;2023-05-10T04:47:54;100145.72;;;7.18;100.00
28935;BME280;16044;52.726;-2.108;2023-05-10T04:50:42;100150.28;;;7.26;100.00
28935;BME280;16044;52.726;-2.108;2023-05-10T04:53:29;100146.09;;;7.40;100.00
28935;BME280;16044;52.726;-2.108;2023-05-10T04:56:17;100153.00;;;7.42;100.00
28935;BME280;16044;52.726;-2.108;2023-05-10T04:59:04;100155.91;;;7.49;100.00
28935;BME280;16044;52.726;-2.108;2023-05-10T05:01:51;100160.31;;;7.58;100.00
28935;BME280;16044;52.726;-2.108;2023-05-10T05:04:39;100163.00;;;7.67;100.00
28935;BME280;16044;52.726;-2.108;2023-05-10T05:07:26;100167.09;;;7.79;100.00
28935;BME280;16044;52.726;-2.108;2023-05-10T05:10:14;100158.66;;;8.07;100.00
28935;BME280;16044;52.726;-2.108;2023-05-10T05:13:01;100159.34;;;8.50;100.00
28935;BME280;16044;52.726;-2.108;2023-05-10T05:15:49;100157.34;;;9.00;100.00
28935;BME280;16044;52.726;-2.108;2023-05-10T05:18:36;100155.94;;;9.51;100.00
28935;BME280;16044;52.726;-2.108;2023-05-10T05:21:24;100152.53;;;10.04;100.00
28935;BME280;16044;52.726;-2.108;2023-05-10T05:24:13;100153.72;;;10.47;100.00
28935;BME280;16044;52.726;-2.108;2023-05-10T05:27:01;100169.81;;;10.93;100.00
28935;BME280;16044;52.726;-2.108;2023-05-10T05:29:48;100161.66;;;11.38;100.00
28935;BME280;16044;52.726;-2.108;2023-05-10T05:32:35;100155.69;;;11.86;98.23
28935;BME280;16044;52.726;-2.108;2023-05-10T05:35:26;100152.59;;;12.32;95.76
28935;BME280;16044;52.726;-2.108;2023-05-10T05:38:13;100168.81;;;12.75;93.54
28935;BME280;16044;52.726;-2.108;2023-05-10T05:41:01;100169.47;;;13.19;91.70
28935;BME280;16044;52.726;-2.108;2023-05-10T05:43:48;100174.72;;;13.62;91.80
28935;BME280;16044;52.726;-2.108;2023-05-10T05:46:36;100176.28;;;13.98;88.12
28935;BME280;16044;52.726;-2.108;2023-05-10T05:49:23;100181.16;;;14.36;85.77
28935;BME280;16044;52.726;-2.108;2023-05-10T05:52:10;100183.25;;;14.74;84.45
28935;BME280;16044;52.726;-2.108;2023-05-10T05:54:58;100184.25;;;15.06;83.45
28935;BME280;16044;52.726;-2.108;2023-05-10T05:57:45;100180.59;;;15.39;82.10
28935;BME280;16044;52.726;-2.108;2023-05-10T06:00:33;100174.59;;;15.62;81.01
28935;BME280;16044;52.726;-2.108;2023-05-10T06:03:20;100178.78;;;15.65;79.19
28935;BME280;16044;52.726;-2.108;2023-05-10T06:06:08;100180.72;;;15.57;78.91
28935;BME280;16044;52.726;-2.108;2023-05-10T06:08:55;100185.72;;;15.74;79.18
28935;BME280;16044;52.726;-2.108;2023-05-10T06:11:43;100193.81;;;15.94;78.37
28935;BME280;16044;52.726;-2.108;2023-05-10T06:14:30;100186.94;;;16.16;77.46
28935;BME280;16044;52.726;-2.108;2023-05-10T06:17:18;100185.91;;;16.43;76.84
28935;BME280;16044;52.726;-2.108;2023-05-10T06:20:06;100189.06;;;16.65;75.11
28935;BME280;16044;52.726;-2.108;2023-05-10T06:22:54;100189.75;;;16.85;74.23
28935;BME280;16044;52.726;-2.108;2023-05-10T06:25:41;100182.19;;;17.06;73.18
28935;BME280;16044;52.726;-2.108;2023-05-10T06:28:29;100191.94;;;17.20;72.34
28935;BME280;16044;52.726;-2.108;2023-05-10T06:31:18;100186.44;;;17.39;71.66
28935;BME280;16044;52.726;-2.108;2023-05-10T06:34:05;100190.09;;;17.51;70.99
28935;BME280;16044;52.726;-2.108;2023-05-10T06:36:54;100199.81;;;17.65;70.03
28935;BME280;16044;52.726;-2.108;2023-05-10T06:39:42;100190.81;;;17.77;68.77
28935;BME280;16044;52.726;-2.108;2023-05-10T06:42:29;100197.00;;;17.90;68.49
28935;BME280;16044;52.726;-2.108;2023-05-10T06:45:17;100203.75;;;17.88;67.82
28935;BME280;16044;52.726;-2.108;2023-05-10T06:48:05;100203.56;;;18.01;68.15
28935;BME280;16044;52.726;-2.108;2023-05-10T06:50:52;100207.88;;;17.97;67.47
28935;BME280;16044;52.726;-2.108;2023-05-10T06:53:39;100206.91;;;18.03;67.78
28935;BME280;16044;52.726;-2.108;2023-05-10T06:56:27;100208.75;;;18.09;68.28
28935;BME280;16044;52.726;-2.108;2023-05-10T06:59:14;100208.16;;;18.07;67.30
28935;BME280;16044;52.726;-2.108;2023-05-10T07:02:03;100213.16;;;18.10;68.22
28935;BME280;16044;52.726;-2.108;2023-05-10T07:04:50;100204.69;;;18.12;68.51
28935;BME280;16044;52.726;-2.108;2023-05-10T07:07:38;100211.31;;;18.23;67.20
28935;BME280;16044;52.726;-2.108;2023-05-10T07:10:26;100205.63;;;18.06;67.10
28935;BME280;16044;52.726;-2.108;2023-05-10T07:13:14;100208.94;;;17.96;67.34
28935;BME280;16044;52.726;-2.108;2023-05-10T07:16:01;100205.84;;;17.92;68.99
28935;BME280;16044;52.726;-2.108;2023-05-10T07:18:49;100207.97;;;18.21;67.37
28935;BME280;16044;52.726;-2.108;2023-05-10T07:21:37;100203.91;;;18.23;65.88
28935;BME280;16044;52.726;-2.108;2023-05-10T07:24:27;100206.69;;;18.05;66.14
28935;BME280;16044;52.726;-2.108;2023-05-10T07:27:14;100208.88;;;18.15;65.72
28935;BME280;16044;52.726;-2.108;2023-05-10T07:30:02;100206.91;;;18.03;66.92
28935;BME280;16044;52.726;-2.108;2023-05-10T07:32:49;100203.31;;;17.91;68.04
28935;BME280;16044;52.726;-2.108;2023-05-10T07:35:37;100199.53;;;17.55;68.63
28935;BME280;16044;52.726;-2.108;2023-05-10T07:38:24;100209.06;;;17.52;67.75
28935;BME280;16044;52.726;-2.108;2023-05-10T07:41:12;100210.34;;;17.31;66.75
28935;BME280;16044;52.726;-2.108;2023-05-10T07:43:59;100207.06;;;17.04;67.54
28935;BME280;16044;52.726;-2.108;2023-05-10T07:46:47;100206.78;;;16.87;68.17
28935;BME280;16044;52.726;-2.108;2023-05-10T07:49:35;100211.88;;;16.59;68.66
28935;BME280;16044;52.726;-2.108;2023-05-10T07:52:22;100217.88;;;16.42;69.01
28935;BME280;16044;52.726;-2.108;2023-05-10T07:55:10;100214.50;;;16.15;70.77
28935;BME280;16044;52.726;-2.108;2023-05-10T07:57:57;100211.78;;;16.15;70.78
28935;BME280;16044;52.726;-2.108;2023-05-10T08:00:47;100214.44;;;15.90;72.17
28935;BME280;16044;52.726;-2.108;2023-05-10T08:03:36;100210.25;;;15.87;72.02
28935;BME280;16044;52.726;-2.108;2023-05-10T08:06:23;100218.28;;;15.75;72.35
28935;BME280;16044;52.726;-2.108;2023-05-10T08:09:13;100217.44;;;15.68;74.95
28935;BME280;16044;52.726;-2.108;2023-05-10T08:12:00;100214.03;;;15.86;74.83
28935;BME280;16044;52.726;-2.108;2023-05-10T08:14:48;100218.84;;;15.91;75.04
28935;BME280;16044;52.726;-2.108;2023-05-10T08:17:35;100215.59;;;16.07;74.87
28935;BME280;16044;52.726;-2.108;2023-05-10T08:20:23;100219.50;;;16.18;73.97
28935;BME280;16044;52.726;-2.108;2023-05-10T08:23:12;100215.44;;;16.34;73.29
28935;BME280;16044;52.726;-2.108;2023-05-10T08:26:00;100218.06;;;16.47;73.09
28935;BME280;16044;52.726;-2.108;2023-05-10T08:28:47;100210.84;;;16.78;72.91
28935;BME280;16044;52.726;-2.108;2023-05-10T08:31:35;100217.78;;;17.06;72.17
28935;BME280;16044;52.726;-2.108;2023-05-10T08:34:22;100216.13;;;17.23;71.33
28935;BME280;16044;52.726;-2.108;2023-05-10T08:37:11;100226.16;;;17.29;69.81
28935;BME280;16044;52.726;-2.108;2023-05-10T08:40:00;100221.69;;;17.35;69.90
28935;BME280;16044;52.726;-2.108;2023-05-10T08:42:56;100227.59;;;17.13;69.93
28935;BME280;16044;52.726;-2.108;2023-05-10T08:45:46;100221.00;;;17.21;69.46
28935;BME280;16044;52.726;-2.108;2023-05-10T08:48:34;100225.94;;;17.31;70.59
28935;BME280;16044;52.726;-2.108;2023-05-10T08:51:24;100216.13;;;17.42;68.98
28935;BME280;16044;52.726;-2.108;2023-05-10T08:54:15;100216.75;;;17.62;69.64
28935;BME280;16044;52.726;-2.108;2023-05-10T08:57:03;100221.28;;;17.68;67.86
28935;BME280;16044;52.726;-2.108;2023-05-10T08:59:50;100214.59;;;17.64;68.33
28935;BME280;16044;52.726;-2.108;2023-05-10T09:02:38;100218.09;;;17.53;67.31
28935;BME280;16044;52.726;-2.108;2023-05-10T09:05:25;100224.19;;;17.37;68.01
28935;BME280;16044;52.726;-2.108;2023-05-10T09:08:13;100218.41;;;17.26;68.38
28935;BME280;16044;52.726;-2.108;2023-05-10T09:11:03;100219.94;;;17.22;69.25
28935;BME280;16044;52.726;-2.108;2023-05-10T09:13:50;100219.03;;;17.28;70.11
28935;BME280;16044;52.726;-2.108;2023-05-10T09:16:39;100210.56;;;17.48;69.26
28935;BME280;16044;52.726;-2.108;2023-05-10T09:19:28;100219.69;;;17.61;69.36
28935;BME280;16044;52.726;-2.108;2023-05-10T09:22:16;100219.91;;;17.78;67.86
28935;BME280;16044;52.726;-2.108;2023-05-10T09:25:07;100209.03;;;17.89;68.35
28935;BME280;16044;52.726;-2.108;2023-05-10T09:27:55;100212.56;;;18.08;67.56
28935;BME280;16044;52.726;-2.108;2023-05-10T09:30:42;100207.97;;;18.21;65.91
28935;BME280;16044;52.726;-2.108;2023-05-10T09:33:43;100213.75;;;18.12;65.11
28935;BME280;16044;52.726;-2.108;2023-05-10T09:36:32;100205.31;;;18.26;65.09
28935;BME280;16044;52.726;-2.108;2023-05-10T09:39:20;100205.53;;;18.12;64.41
28935;BME280;16044;52.726;-2.108;2023-05-10T09:42:09;100196.50;;;18.24;65.98
28935;BME280;16044;52.726;-2.108;2023-05-10T09:45:04;100197.38;;;18.36;66.17
28935;BME280;16044;52.726;-2.108;2023-05-10T09:47:52;100194.78;;;18.53;65.27
28935;BME280;16044;52.726;-2.108;2023-05-10T09:50:40;100196.88;;;18.27;61.56
28935;BME280;16044;52.726;-2.108;2023-05-10T09:53:28;100208.97;;;18.08;62.19
28935;BME280;16044;52.726;-2.108;2023-05-10T09:56:45;100205.47;;;17.89;63.42
28935;BME280;16044;52.726;-2.108;2023-05-10T09:59:32;100206.66;;;17.74;61.96
28935;BME280;16044;52.726;-2.108;2023-05-10T10:02:28;100208.28;;;17.64;62.55
28935;BME280;16044;52.726;-2.108;2023-05-10T10:05:16;100213.56;;;17.47;64.61
28935;BME280;16044;52.726;-2.108;2023-05-10T10:08:05;100215.28;;;17.23;64.86
28935;BME280;16044;52.726;-2.108;2023-05-10T10:10:53;100211.56;;;17.36;64.25
28935;BME280;16044;52.726;-2.108;2023-05-10T10:13:40;100212.94;;;17.26;64.39
28935;BME280;16044;52.726;-2.108;2023-05-10T10:16:32;100211.09;;;17.39;62.70
28935;BME280;16044;52.726;-2.108;2023-05-10T10:19:20;100207.38;;;17.33;63.60
28935;BME280;16044;52.726;-2.108;2023-05-10T10:22:08;100205.56;;;17.45;64.48
28935;BME280;16044;52.726;-2.108;2023-05-10T10:24:58;100201.50;;;17.66;63.77
28935;BME280;16044;52.726;-2.108;2023-05-10T10:30:45;100194.03;;;17.92;63.74
28935;BME280;16044;52.726;-2.108;2023-05-10T10:36:46;100196.13;;;17.90;65.95
28935;BME280;16044;52.726;-2.108;2023-05-10T10:39:34;100196.63;;;17.68;70.38
28935;BME280;16044;52.726;-2.108;2023-05-10T10:42:45;100189.50;;;17.49;73.24
28935;BME280;16044;52.726;-2.108;2023-05-10T10:45:33;100194.97;;;17.49;74.46
28935;BME280;16044;52.726;-2.108;2023-05-10T10:48:22;100187.66;;;17.61;76.48
28935;BME280;16044;52.726;-2.108;2023-05-10T10:51:10;100186.50;;;17.87;74.71
28935;BME280;16044;52.726;-2.108;2023-05-10T10:54:11;100178.00;;;18.19;72.89
28935;BME280;16044;52.726;-2.108;2023-05-10T10:57:12;100179.28;;;18.47;64.55
28935;BME280;16044;52.726;-2.108;2023-05-10T11:03:14;100165.56;;;18.70;61.53
28935;BME280;16044;52.726;-2.108;2023-05-10T11:06:06;100166.97;;;18.73;61.28
28935;BME280;16044;52.726;-2.108;2023-05-10T11:08:54;100167.59;;;18.75;61.15
28935;BME280;16044;52.726;-2.108;2023-05-10T11:11:52;100169.84;;;18.55;60.53
28935;BME280;16044;52.726;-2.108;2023-05-10T11:14:42;100166.47;;;18.29;63.58
28935;BME280;16044;52.726;-2.108;2023-05-10T11:17:29;100163.63;;;18.36;62.74
28935;BME280;16044;52.726;-2.108;2023-05-10T11:20:18;100172.22;;;18.39;64.28
28935;BME280;16044;52.726;-2.108;2023-05-10T11:23:12;100167.69;;;18.57;62.21
28935;BME280;16044;52.726;-2.108;2023-05-10T11:26:02;100170.09;;;18.65;62.06
28935;BME280;16044;52.726;-2.108;2023-05-10T11:28:51;100161.97;;;18.70;61.38
28935;BME280;16044;52.726;-2.108;2023-05-10T11:31:44;100166.00;;;18.56;60.67
28935;BME280;16044;52.726;-2.108;2023-05-10T11:34:32;100160.75;;;18.42;61.61
28935;BME280;16044;52.726;-2.108;2023-05-10T11:37:22;100162.53;;;18.37;60.25
28935;BME280;16044;52.726;-2.108;2023-05-10T11:40:10;100159.41;;;18.33;60.25
28935;BME280;16044;52.726;-2.108;2023-05-10T11:42:58;100157.78;;;18.56;59.02
28935;BME280;16044;52.726;-2.108;2023-05-10T11:45:46;100160.28;;;18.69;57.97
28935;BME280;16044;52.726;-2.108;2023-05-10T11:48:33;100159.94;;;18.54;58.69
28935;BME280;16044;52.726;-2.108;2023-05-10T11:51:22;100165.50;;;18.35;58.82
28935;BME280;16044;52.726;-2.108;2023-05-10T11:54:11;100157.16;;;18.30;58.52
28935;BME280;16044;52.726;-2.108;2023-05-10T11:56:58;100159.25;;;18.16;59.73
28935;BME280;16044;52.726;-2.108;2023-05-10T11:59:53;100153.84;;;18.51;59.92
28935;BME280;16044;52.726;-2.108;2023-05-10T12:02:41;100155.16;;;18.61;59.63
28935;BME280;16044;52.726;-2.108;2023-05-10T12:05:32;100160.28;;;18.69;59.67
28935;BME280;16044;52.726;-2.108;2023-05-10T12:08:25;100145.66;;;18.87;57.42
28935;BME280;16044;52.726;-2.108;2023-05-10T12:11:13;100149.44;;;18.74;57.54
28935;BME280;16044;52.726;-2.108;2023-05-10T12:14:04;100144.69;;;18.93;55.07
28935;BME280;16044;52.726;-2.108;2023-05-10T12:16:52;100156.25;;;19.07;55.66
28935;BME280;16044;52.726;-2.108;2023-05-10T12:19:41;100149.88;;;19.18;54.83
28935;BME280;16044;52.726;-2.108;2023-05-10T12:22:28;100160.88;;;19.18;53.81
28935;BME280;16044;52.726;-2.108;2023-05-10T12:25:16;100152.91;;;18.93;53.88
28935;BME280;16044;52.726;-2.108;2023-05-10T12:28:08;100161.75;;;18.72;54.38
28935;BME280;16044;52.726;-2.108;2023-05-10T12:30:58;100155.75;;;18.39;55.29
28935;BME280;16044;52.726;-2.108;2023-05-10T12:33:46;100154.91;;;18.50;54.55
28935;BME280;16044;52.726;-2.108;2023-05-10T12:36:38;100152.88;;;18.58;56.58
28935;BME280;16044;52.726;-2.108;2023-05-10T12:39:25;100149.34;;;18.93;56.08
28935;BME280;16044;52.726;-2.108;2023-05-10T12:42:13;100154.94;;;19.09;53.92
28935;BME280;16044;52.726;-2.108;2023-05-10T12:45:00;100143.91;;;19.21;54.59
28935;BME280;16044;52.726;-2.108;2023-05-10T12:47:48;100143.44;;;19.13;55.22
28935;BME280;16044;52.726;-2.108;2023-05-10T12:50:35;100144.81;;;19.39;52.63
28935;BME280;16044;52.726;-2.108;2023-05-10T12:53:22;100147.38;;;19.28;52.02
28935;BME280;16044;52.726;-2.108;2023-05-10T12:56:10;100160.78;;;19.13;54.21
28935;BME280;16044;52.726;-2.108;2023-05-10T12:58:57;100150.06;;;19.00;59.08
28935;BME280;16044;52.726;-2.108;2023-05-10T13:01:44;100159.16;;;18.88;63.48
28935;BME280;16044;52.726;-2.108;2023-05-10T13:04:32;100152.78;;;18.88;64.08
28935;BME280;16044;52.726;-2.108;2023-05-10T13:07:19;100150.06;;;18.88;60.80
28935;BME280;16044;52.726;-2.108;2023-05-10T13:10:07;100152.31;;;18.79;59.50
28935;BME280;16044;52.726;-2.108;2023-05-10T13:12:54;100163.13;;;18.50;57.83
28935;BME280;16044;52.726;-2.108;2023-05-10T13:15:42;100153.84;;;18.51;56.96
28935;BME280;16044;52.726;-2.108;2023-05-10T13:18:29;100154.81;;;18.69;56.75
28935;BME280;16044;52.726;-2.108;2023-05-10T13:21:17;100161.63;;;18.90;56.35
28935;BME280;16044;52.726;-2.108;2023-05-10T13:24:04;100162.94;;;18.87;58.72
28935;BME280;16044;52.726;-2.108;2023-05-10T13:26:52;100168.81;;;18.91;58.12
28935;BME280;16044;52.726;-2.108;2023-05-10T13:29:39;100172.88;;;19.00;60.24
28935;BME280;16044;52.726;-2.108;2023-05-10T13:32:30;100175.84;;;18.99;60.00
28935;BME280;16044;52.726;-2.108;2023-05-10T13:35:17;100170.00;;;18.83;60.88
28935;BME280;16044;52.726;-2.108;2023-05-10T13:38:05;100165.78;;;18.69;59.87
28935;BME280;16044;52.726;-2.108;2023-05-10T13:40:54;100169.13;;;18.47;58.13
28935;BME280;16044;52.726;-2.108;2023-05-10T13:43:42;100168.63;;;18.50;58.45
28935;BME280;16044;52.726;-2.108;2023-05-10T13:46:29;100160.22;;;18.22;60.20
28935;BME280;16044;52.726;-2.108;2023-05-10T13:49:17;100168.84;;;18.37;59.18
28935;BME280;16044;52.726;-2.108;2023-05-10T13:52:05;100177.44;;;18.29;58.54
28935;BME280;16044;52.726;-2.108;2023-05-10T13:54:56;100173.25;;;18.26;57.77
28935;BME280;16044;52.726;-2.108;2023-05-10T13:57:44;100167.53;;;18.28;57.13
28935;BME280;16044;52.726;-2.108;2023-05-10T14:00:31;100171.00;;;18.35;56.34
28935;BME280;16044;52.726;-2.108;2023-05-10T14:03:19;100174.59;;;18.47;56.02
28935;BME280;16044;52.726;-2.108;2023-05-10T14:06:07;100173.78;;;18.47;57.35
28935;BME280;16044;52.726;-2.108;2023-05-10T14:08:55;100181.53;;;18.50;57.41
28935;BME280;16044;52.726;-2.108;2023-05-10T14:11:42;100170.31;;;18.63;58.15
28935;BME280;16044;52.726;-2.108;2023-05-10T14:14:30;100172.47;;;18.49;58.23
28935;BME280;16044;52.726;-2.108;2023-05-10T14:17:17;100177.50;;;18.53;56.97
28935;BME280;16044;52.726;-2.108;2023-05-10T14:20:05;100178.19;;;18.60;57.39
28935;BME280;16044;52.726;-2.108;2023-05-10T14:22:53;100179.03;;;18.72;56.12
28935;BME280;16044;52.726;-2.108;2023-05-10T14:25:40;100176.31;;;18.72;56.04
28935;BME280;16044;52.726;-2.108;2023-05-10T14:28:28;100177.63;;;18.69;56.06
28935;BME280;16044;52.726;-2.108;2023-05-10T14:31:15;100176.75;;;18.69;56.75
28935;BME280;16044;52.726;-2.108;2023-05-10T14:34:03;100182.97;;;18.76;55.44
28935;BME280;16044;52.726;-2.108;2023-05-10T14:36:51;100179.41;;;18.64;54.07
28935;BME280;16044;52.726;-2.108;2023-05-10T14:39:38;100184.75;;;18.47;54.19
28935;BME280;16044;52.726;-2.108;2023-05-10T14:42:26;100179.81;;;18.25;55.03
28935;BME280;16044;52.726;-2.108;2023-05-10T14:45:13;100181.81;;;18.18;55.64
28935;BME280;16044;52.726;-2.108;2023-05-10T14:48:01;100171.56;;;18.14;56.29
28935;BME280;16044;52.726;-2.108;2023-05-10T14:50:51;100170.16;;;18.23;56.28
28935;BME280;16044;52.726;-2.108;2023-05-10T14:53:39;100172.31;;;18.33;55.95